Terminal Aerodrome Forecast
Issued by NWS

Home | Current Version | Previous Version | Text Only | Print | Product List | Glossary On
Versions: 1 2 3 4 5 6 7 8 9 10 11 12 13 14 15 16 17 18 19 20 21 22 23 24 25
000
FTUS41 KCAR 301801 RRA
TAFBHB
TAF
KBHB 301801Z 3018/3118 20012G22KT P6SM SKC
     FM310200 20014G21KT 3SM BR BKN006 WS020/22045KT
     FM310400 20014G21KT 1SM -SHRA BR BKN003 OVC010 WS020/22045KT
     FM310700 22012G22KT 3SM -RA OVC006
     FM311000 33010G20KT 5SM -RA OVC010
      AMD LTD TO CLD VIS AND WIND=

USA.gov is the U.S. government's official web portal to all federal, state and local government web resources and services.